GLD1134 SBPJ-SBSN
Flight info
| Callsign | GLD1134 |
|---|---|
| Flight time | 1h 26m |
| Altitude | 40000 |
| Route | DCT OPNUP ITALA RONUB ANRUS GELVU ATIDO DCT |
| Aircraft | C750/M-SDFGIRY/S |
Departure
| Time | 2026-04-18 18:31 |
|---|---|
| Airport | Brigadeiro Lysias Rodrigues Airport (SBPJ) |
Arrival
| Time | 2026-04-18 19:57 |
|---|---|
| Airport | Santarém - Maestro Wilson Fonseca International Airport (SBSN) |
| Time | Latitude | Longitude | Altitude | Speed | Heading |
|---|---|---|---|---|---|
| 2026-04-18 18:14 | -10.29259 | -48.36118 | 746 ft | 0 kts | 43° |
| 2026-04-18 18:22 | -10.29259 | -48.36119 | 746 ft | 0 kts | 43° |
| 2026-04-18 18:23 | -10.29254 | -48.36111 | 744 ft | 4 kts | 65° |
| 2026-04-18 18:24 | -10.29265 | -48.36086 | 746 ft | 4 kts | 123° |
| 2026-04-18 18:24 | -10.29272 | -48.36058 | 746 ft | 4 kts | 74° |
| 2026-04-18 18:24 | -10.29251 | -48.36039 | 746 ft | 5 kts | 32° |
| 2026-04-18 18:24 | -10.29221 | -48.36020 | 746 ft | 6 kts | 33° |
| 2026-04-18 18:25 | -10.29186 | -48.35996 | 747 ft | 7 kts | 33° |
| 2026-04-18 18:25 | -10.29144 | -48.35967 | 746 ft | 7 kts | 33° |
| 2026-04-18 18:25 | -10.29109 | -48.35943 | 744 ft | 0 kts | 33° |
| 2026-04-18 18:26 | -10.29095 | -48.35934 | 747 ft | 5 kts | 33° |
| 2026-04-18 18:26 | -10.29048 | -48.35899 | 744 ft | 11 kts | 51° |
| 2026-04-18 18:27 | -10.29079 | -48.35815 | 745 ft | 15 kts | 123° |
| 2026-04-18 18:27 | -10.29135 | -48.35729 | 745 ft | 14 kts | 124° |
| 2026-04-18 18:27 | -10.29188 | -48.35651 | 746 ft | 13 kts | 124° |
| 2026-04-18 18:27 | -10.29243 | -48.35564 | 747 ft | 17 kts | 124° |
| 2026-04-18 18:28 | -10.29321 | -48.35447 | 746 ft | 23 kts | 124° |
| 2026-04-18 18:28 | -10.29411 | -48.35313 | 747 ft | 22 kts | 124° |
| 2026-04-18 18:28 | -10.29494 | -48.35187 | 747 ft | 21 kts | 124° |
| 2026-04-18 18:28 | -10.29573 | -48.35062 | 746 ft | 21 kts | 121° |
| 2026-04-18 18:29 | -10.29649 | -48.34943 | 744 ft | 19 kts | 124° |
| 2026-04-18 18:29 | -10.29716 | -48.34842 | 744 ft | 12 kts | 119° |
| 2026-04-18 18:29 | -10.29716 | -48.34764 | 744 ft | 10 kts | 99° |
| 2026-04-18 18:29 | -10.29766 | -48.34745 | 744 ft | 8 kts | 211° |
| 2026-04-18 18:30 | -10.29765 | -48.34769 | 744 ft | 4 kts | 307° |
| 2026-04-18 18:30 | -10.29717 | -48.34840 | 744 ft | 23 kts | 305° |
| 2026-04-18 18:30 | -10.29449 | -48.35248 | 748 ft | 122 kts | 303° |
| 2026-04-18 18:30 | -10.28865 | -48.36138 | 789 ft | 173 kts | 303° |
| 2026-04-18 18:31 | -10.28120 | -48.37238 | 1239 ft | 190 kts | 305° |
| 2026-04-18 18:31 | -10.27355 | -48.38260 | 2382 ft | 178 kts | 307° |
| 2026-04-18 18:31 | -10.26674 | -48.39377 | 3089 ft | 198 kts | 299° |
| 2026-04-18 18:31 | -10.25895 | -48.40620 | 3677 ft | 226 kts | 311° |
| 2026-04-18 18:32 | -10.24489 | -48.41534 | 4180 ft | 257 kts | 338° |
| 2026-04-18 18:32 | -10.22739 | -48.42194 | 4834 ft | 274 kts | 342° |
| 2026-04-18 18:32 | -10.20966 | -48.42887 | 5909 ft | 273 kts | 339° |
| 2026-04-18 18:32 | -10.19204 | -48.43664 | 6831 ft | 278 kts | 337° |
| 2026-04-18 18:33 | -10.17414 | -48.44452 | 7785 ft | 282 kts | 338° |
| 2026-04-18 18:33 | -10.15588 | -48.45226 | 8799 ft | 287 kts | 338° |
| 2026-04-18 18:33 | -10.13726 | -48.46013 | 9760 ft | 293 kts | 337° |
| 2026-04-18 18:33 | -10.11821 | -48.46829 | 10403 ft | 306 kts | 337° |
| 2026-04-18 18:34 | -10.09770 | -48.47708 | 10617 ft | 333 kts | 337° |
| 2026-04-18 18:34 | -10.07541 | -48.48660 | 10748 ft | 360 kts | 337° |
| 2026-04-18 18:34 | -10.05231 | -48.49645 | 11496 ft | 362 kts | 337° |
| 2026-04-18 18:34 | -10.02917 | -48.50633 | 12260 ft | 365 kts | 337° |
| 2026-04-18 18:35 | -10.00557 | -48.51640 | 12978 ft | 370 kts | 337° |
| 2026-04-18 18:35 | -9.98170 | -48.52659 | 13690 ft | 374 kts | 337° |
| 2026-04-18 18:35 | -9.95760 | -48.53688 | 14316 ft | 378 kts | 337° |
| 2026-04-18 18:35 | -9.93321 | -48.54728 | 14953 ft | 382 kts | 337° |
| 2026-04-18 18:36 | -9.90856 | -48.55779 | 15574 ft | 386 kts | 337° |
| 2026-04-18 18:36 | -9.88365 | -48.56842 | 16222 ft | 390 kts | 337° |
| 2026-04-18 18:36 | -9.85851 | -48.57914 | 16882 ft | 394 kts | 337° |
| 2026-04-18 18:36 | -9.83304 | -48.59000 | 17563 ft | 399 kts | 337° |
| 2026-04-18 18:37 | -9.80734 | -48.60095 | 18220 ft | 404 kts | 337° |
| 2026-04-18 18:37 | -9.78125 | -48.61207 | 18849 ft | 407 kts | 337° |
| 2026-04-18 18:37 | -9.75503 | -48.62325 | 19496 ft | 411 kts | 337° |
| 2026-04-18 18:37 | -9.72855 | -48.63453 | 20163 ft | 415 kts | 337° |
| 2026-04-18 18:38 | -9.70209 | -48.64650 | 20763 ft | 419 kts | 332° |
| 2026-04-18 18:38 | -9.67856 | -48.66418 | 21381 ft | 422 kts | 317° |
| 2026-04-18 18:38 | -9.65939 | -48.68639 | 22046 ft | 425 kts | 308° |
| 2026-04-18 18:38 | -9.64120 | -48.71016 | 22721 ft | 429 kts | 307° |
| 2026-04-18 18:39 | -9.62278 | -48.73413 | 23363 ft | 433 kts | 307° |
| 2026-04-18 18:39 | -9.60403 | -48.75820 | 23922 ft | 437 kts | 308° |
| 2026-04-18 18:39 | -9.58517 | -48.78243 | 24515 ft | 440 kts | 307° |
| 2026-04-18 18:39 | -9.56624 | -48.80694 | 25074 ft | 443 kts | 307° |
| 2026-04-18 18:40 | -9.54718 | -48.83162 | 25657 ft | 446 kts | 307° |
| 2026-04-18 18:40 | -9.52787 | -48.85651 | 26239 ft | 449 kts | 307° |
| 2026-04-18 18:40 | -9.50849 | -48.88147 | 26812 ft | 453 kts | 307° |
| 2026-04-18 18:40 | -9.48895 | -48.90668 | 27394 ft | 456 kts | 307° |
| 2026-04-18 18:41 | -9.46931 | -48.93205 | 27962 ft | 459 kts | 307° |
| 2026-04-18 18:41 | -9.44948 | -48.95762 | 28533 ft | 463 kts | 307° |
| 2026-04-18 18:41 | -9.42951 | -48.98334 | 29087 ft | 466 kts | 307° |
| 2026-04-18 18:41 | -9.40938 | -49.00928 | 29625 ft | 470 kts | 306° |
| 2026-04-18 18:42 | -9.38911 | -49.03542 | 30107 ft | 473 kts | 306° |
| 2026-04-18 18:42 | -9.36866 | -49.06177 | 30559 ft | 476 kts | 307° |
| 2026-04-18 18:42 | -9.34820 | -49.08811 | 31083 ft | 476 kts | 307° |
| 2026-04-18 18:42 | -9.32780 | -49.11437 | 31772 ft | 472 kts | 307° |
| 2026-04-18 18:43 | -9.28735 | -49.16646 | 33030 ft | 468 kts | 307° |
| 2026-04-18 18:43 | -9.26755 | -49.19195 | 33657 ft | 466 kts | 307° |
| 2026-04-18 18:43 | -9.24753 | -49.21769 | 34221 ft | 464 kts | 307° |
| 2026-04-18 18:44 | -9.22760 | -49.24333 | 34770 ft | 463 kts | 307° |
| 2026-04-18 18:44 | -9.20774 | -49.26888 | 35318 ft | 461 kts | 307° |
| 2026-04-18 18:44 | -9.18792 | -49.29438 | 35877 ft | 459 kts | 307° |
| 2026-04-18 18:44 | -9.16819 | -49.31973 | 36458 ft | 457 kts | 307° |
| 2026-04-18 18:45 | -9.14854 | -49.34499 | 37041 ft | 455 kts | 308° |
| 2026-04-18 18:45 | -9.12899 | -49.37012 | 37622 ft | 454 kts | 308° |
| 2026-04-18 18:45 | -9.10949 | -49.39518 | 38218 ft | 452 kts | 308° |
| 2026-04-18 18:45 | -9.08999 | -49.42022 | 38769 ft | 451 kts | 308° |
| 2026-04-18 18:46 | -9.07061 | -49.44511 | 39264 ft | 450 kts | 308° |
| 2026-04-18 18:46 | -9.05776 | -49.46161 | 39583 ft | 448 kts | 308° |
| 2026-04-18 18:46 | -9.03850 | -49.48634 | 39962 ft | 450 kts | 308° |
| 2026-04-18 18:46 | -9.01887 | -49.51154 | 39942 ft | 462 kts | 308° |
| 2026-04-18 18:47 | -8.99874 | -49.53738 | 39947 ft | 473 kts | 308° |
| 2026-04-18 18:47 | -8.95019 | -49.59967 | 39964 ft | 495 kts | 308° |
| 2026-04-18 18:48 | -8.91400 | -49.64608 | 39958 ft | 505 kts | 308° |
| 2026-04-18 18:48 | -8.87025 | -49.70217 | 39956 ft | 508 kts | 308° |
| 2026-04-18 18:49 | -8.82636 | -49.75841 | 39954 ft | 509 kts | 308° |
| 2026-04-18 18:49 | -8.78265 | -49.81439 | 39950 ft | 510 kts | 308° |
| 2026-04-18 18:50 | -8.73866 | -49.87072 | 39955 ft | 511 kts | 308° |
| 2026-04-18 18:50 | -8.69452 | -49.92720 | 39956 ft | 511 kts | 308° |
| 2026-04-18 18:51 | -8.65045 | -49.98359 | 39950 ft | 511 kts | 308° |
| 2026-04-18 18:51 | -8.60655 | -50.03973 | 39947 ft | 511 kts | 308° |
| 2026-04-18 18:52 | -8.56223 | -50.09638 | 39948 ft | 511 kts | 308° |
| 2026-04-18 18:52 | -8.51808 | -50.15277 | 39947 ft | 512 kts | 308° |
| 2026-04-18 18:53 | -8.47387 | -50.20924 | 39948 ft | 512 kts | 308° |
| 2026-04-18 18:53 | -8.42970 | -50.26562 | 39946 ft | 512 kts | 308° |
| 2026-04-18 18:54 | -8.38548 | -50.32205 | 39945 ft | 511 kts | 308° |
| 2026-04-18 18:54 | -8.34128 | -50.37843 | 39945 ft | 512 kts | 308° |
| 2026-04-18 18:55 | -8.29728 | -50.43454 | 39855 ft | 511 kts | 308° |
| 2026-04-18 18:55 | -8.25322 | -50.49069 | 39810 ft | 511 kts | 308° |
| 2026-04-18 18:56 | -8.20903 | -50.54699 | 39820 ft | 511 kts | 308° |
| 2026-04-18 18:56 | -8.16482 | -50.60328 | 39809 ft | 512 kts | 308° |
| 2026-04-18 18:57 | -8.12053 | -50.65966 | 39809 ft | 511 kts | 308° |
| 2026-04-18 18:57 | -8.07629 | -50.71596 | 39810 ft | 511 kts | 308° |
| 2026-04-18 18:58 | -8.03207 | -50.77220 | 39817 ft | 511 kts | 308° |
| 2026-04-18 18:58 | -7.98784 | -50.82844 | 39812 ft | 511 kts | 308° |
| 2026-04-18 18:59 | -7.94394 | -50.88424 | 39809 ft | 511 kts | 308° |
| 2026-04-18 18:59 | -7.89965 | -50.94051 | 39805 ft | 511 kts | 308° |
| 2026-04-18 19:00 | -7.85542 | -50.99668 | 39805 ft | 511 kts | 308° |
| 2026-04-18 19:00 | -7.81119 | -51.05283 | 39806 ft | 511 kts | 308° |
| 2026-04-18 19:01 | -7.76696 | -51.10896 | 39810 ft | 511 kts | 308° |
| 2026-04-18 19:01 | -7.72267 | -51.16516 | 39802 ft | 511 kts | 308° |
| 2026-04-18 19:02 | -7.67866 | -51.22095 | 39807 ft | 511 kts | 308° |
| 2026-04-18 19:02 | -7.63433 | -51.27715 | 39798 ft | 511 kts | 308° |
| 2026-04-18 19:03 | -7.58704 | -51.33082 | 39798 ft | 512 kts | 313° |
| 2026-04-18 19:03 | -7.53836 | -51.38316 | 39805 ft | 512 kts | 312° |
| 2026-04-18 19:04 | -7.46576 | -51.46246 | 39811 ft | 513 kts | 313° |
| 2026-04-18 19:04 | -7.41752 | -51.51498 | 39805 ft | 513 kts | 313° |
| 2026-04-18 19:05 | -7.34474 | -51.59408 | 39805 ft | 513 kts | 313° |
| 2026-04-18 19:06 | -7.29627 | -51.64689 | 39806 ft | 513 kts | 313° |
| 2026-04-18 19:06 | -7.22347 | -51.72595 | 39806 ft | 512 kts | 313° |
| 2026-04-18 19:07 | -7.17500 | -51.77863 | 39805 ft | 512 kts | 313° |
| 2026-04-18 19:07 | -7.12689 | -51.83085 | 39806 ft | 512 kts | 313° |
| 2026-04-18 19:08 | -7.07854 | -51.88336 | 39811 ft | 512 kts | 313° |
| 2026-04-18 19:08 | -7.03011 | -51.93590 | 39819 ft | 512 kts | 313° |
| 2026-04-18 19:09 | -6.98161 | -51.98851 | 39809 ft | 514 kts | 313° |
| 2026-04-18 19:09 | -6.93298 | -52.04126 | 39815 ft | 514 kts | 313° |
| 2026-04-18 19:10 | -6.88438 | -52.09395 | 39813 ft | 514 kts | 313° |
| 2026-04-18 19:10 | -6.83576 | -52.14664 | 39813 ft | 514 kts | 313° |
| 2026-04-18 19:11 | -6.78707 | -52.19939 | 39787 ft | 515 kts | 313° |
| 2026-04-18 19:11 | -6.73833 | -52.25218 | 39828 ft | 515 kts | 313° |
| 2026-04-18 19:12 | -6.68961 | -52.30493 | 39834 ft | 514 kts | 313° |
| 2026-04-18 19:12 | -6.64086 | -52.35770 | 39832 ft | 515 kts | 313° |
| 2026-04-18 19:13 | -6.59208 | -52.41048 | 39826 ft | 515 kts | 313° |
| 2026-04-18 19:13 | -6.54364 | -52.46288 | 39825 ft | 515 kts | 313° |
| 2026-04-18 19:14 | -6.49472 | -52.51577 | 39827 ft | 515 kts | 313° |
| 2026-04-18 19:14 | -6.44587 | -52.56859 | 39828 ft | 515 kts | 313° |
| 2026-04-18 19:15 | -6.39691 | -52.62150 | 39828 ft | 515 kts | 313° |
| 2026-04-18 19:15 | -6.34814 | -52.67420 | 39828 ft | 515 kts | 313° |
| 2026-04-18 19:16 | -6.29799 | -52.72574 | 39825 ft | 515 kts | 315° |
| 2026-04-18 19:16 | -6.24788 | -52.77672 | 39824 ft | 515 kts | 315° |
| 2026-04-18 19:17 | -6.19730 | -52.82787 | 39829 ft | 515 kts | 315° |
| 2026-04-18 19:17 | -6.14677 | -52.87911 | 39831 ft | 515 kts | 315° |
| 2026-04-18 19:18 | -6.09627 | -52.93024 | 39832 ft | 515 kts | 315° |
| 2026-04-18 19:18 | -6.04609 | -52.98105 | 39835 ft | 515 kts | 315° |
| 2026-04-18 19:19 | -5.99548 | -53.03227 | 39828 ft | 515 kts | 315° |
| 2026-04-18 19:19 | -5.94488 | -53.08348 | 39830 ft | 515 kts | 315° |
| 2026-04-18 19:20 | -5.89432 | -53.13463 | 39828 ft | 515 kts | 315° |
| 2026-04-18 19:20 | -5.84404 | -53.18548 | 39828 ft | 515 kts | 315° |
| 2026-04-18 19:21 | -5.79351 | -53.23657 | 39830 ft | 515 kts | 315° |
| 2026-04-18 19:21 | -5.74289 | -53.28774 | 39832 ft | 515 kts | 315° |
| 2026-04-18 19:22 | -5.69231 | -53.33886 | 39825 ft | 516 kts | 315° |
| 2026-04-18 19:22 | -5.64168 | -53.39000 | 39827 ft | 516 kts | 315° |
| 2026-04-18 19:23 | -5.59133 | -53.44086 | 39828 ft | 516 kts | 315° |
| 2026-04-18 19:23 | -5.54064 | -53.49205 | 39827 ft | 516 kts | 315° |
| 2026-04-18 19:24 | -5.48998 | -53.54318 | 39828 ft | 516 kts | 315° |
| 2026-04-18 19:24 | -5.43932 | -53.59432 | 39831 ft | 516 kts | 315° |
| 2026-04-18 19:25 | -5.38860 | -53.64548 | 39833 ft | 516 kts | 315° |
| 2026-04-18 19:25 | -5.33821 | -53.69632 | 39836 ft | 517 kts | 315° |
| 2026-04-18 19:26 | -5.28748 | -53.74748 | 39835 ft | 517 kts | 315° |
| 2026-04-18 19:26 | -5.23669 | -53.79868 | 39838 ft | 518 kts | 315° |
| 2026-04-18 19:27 | -5.18585 | -53.84993 | 39840 ft | 518 kts | 315° |
| 2026-04-18 19:27 | -5.13499 | -53.90119 | 39842 ft | 519 kts | 315° |
| 2026-04-18 19:28 | -5.09256 | -53.94393 | 39846 ft | 520 kts | 315° |
| 2026-04-18 19:28 | -5.04138 | -53.99548 | 39844 ft | 521 kts | 315° |
| 2026-04-18 19:29 | -4.99011 | -54.04712 | 39842 ft | 522 kts | 315° |
| 2026-04-18 19:29 | -4.93565 | -54.09503 | 39815 ft | 521 kts | 327° |
| 2026-04-18 19:30 | -4.87177 | -54.12941 | 39838 ft | 521 kts | 335° |
| 2026-04-18 19:30 | -4.80679 | -54.16194 | 39836 ft | 522 kts | 331° |
| 2026-04-18 19:31 | -4.74327 | -54.19737 | 39842 ft | 522 kts | 333° |
| 2026-04-18 19:31 | -4.67856 | -54.23049 | 39843 ft | 522 kts | 332° |
| 2026-04-18 19:32 | -4.61481 | -54.26527 | 39843 ft | 521 kts | 333° |
| 2026-04-18 19:32 | -4.55045 | -54.29885 | 39841 ft | 522 kts | 333° |
| 2026-04-18 19:33 | -4.48686 | -54.33301 | 39843 ft | 522 kts | 332° |
| 2026-04-18 19:33 | -4.42265 | -54.36689 | 39845 ft | 521 kts | 333° |
| 2026-04-18 19:34 | -4.35847 | -54.40108 | 39844 ft | 522 kts | 332° |
| 2026-04-18 19:34 | -4.32663 | -54.41801 | 39499 ft | 509 kts | 332° |
| 2026-04-18 19:34 | -4.29549 | -54.43447 | 38819 ft | 506 kts | 333° |
| 2026-04-18 19:35 | -4.26391 | -54.45119 | 38098 ft | 517 kts | 333° |
| 2026-04-18 19:35 | -4.23203 | -54.46814 | 37427 ft | 523 kts | 332° |
| 2026-04-18 19:35 | -4.19909 | -54.48394 | 36725 ft | 524 kts | 338° |
| 2026-04-18 19:35 | -4.16512 | -54.49477 | 36049 ft | 517 kts | 347° |
| 2026-04-18 19:36 | -4.12983 | -54.50058 | 35381 ft | 512 kts | 355° |
| 2026-04-18 19:36 | -4.09441 | -54.50206 | 34722 ft | 506 kts | 0° |
| 2026-04-18 19:36 | -4.05936 | -54.50143 | 34061 ft | 501 kts | 2° |
| 2026-04-18 19:36 | -4.02458 | -54.50050 | 33359 ft | 497 kts | 1° |
| 2026-04-18 19:37 | -3.98941 | -54.50165 | 32702 ft | 509 kts | 356° |
| 2026-04-18 19:37 | -3.95425 | -54.50458 | 32031 ft | 505 kts | 355° |
| 2026-04-18 19:37 | -3.91938 | -54.50687 | 31366 ft | 499 kts | 358° |
| 2026-04-18 19:37 | -3.88481 | -54.50761 | 30718 ft | 494 kts | 359° |
| 2026-04-18 19:38 | -3.85059 | -54.50845 | 30063 ft | 490 kts | 358° |
| 2026-04-18 19:38 | -3.81669 | -54.51034 | 29371 ft | 484 kts | 356° |
| 2026-04-18 19:38 | -3.78370 | -54.51229 | 28742 ft | 479 kts | 357° |
| 2026-04-18 19:38 | -3.75057 | -54.51358 | 28116 ft | 474 kts | 358° |
| 2026-04-18 19:39 | -3.71772 | -54.51466 | 27487 ft | 469 kts | 358° |
| 2026-04-18 19:39 | -3.68528 | -54.51612 | 26877 ft | 464 kts | 358° |
| 2026-04-18 19:39 | -3.65320 | -54.51777 | 26268 ft | 459 kts | 358° |
| 2026-04-18 19:39 | -3.62141 | -54.51918 | 25666 ft | 454 kts | 358° |
| 2026-04-18 19:40 | -3.58990 | -54.52042 | 25070 ft | 450 kts | 358° |
| 2026-04-18 19:40 | -3.55879 | -54.52175 | 24481 ft | 445 kts | 358° |
| 2026-04-18 19:40 | -3.52798 | -54.52318 | 23894 ft | 441 kts | 358° |
| 2026-04-18 19:40 | -3.49747 | -54.52455 | 23293 ft | 437 kts | 358° |
| 2026-04-18 19:41 | -3.46767 | -54.52581 | 22698 ft | 432 kts | 358° |
| 2026-04-18 19:41 | -3.43777 | -54.52710 | 22134 ft | 429 kts | 358° |
| 2026-04-18 19:41 | -3.40798 | -54.52842 | 21564 ft | 425 kts | 358° |
| 2026-04-18 19:41 | -3.37855 | -54.52972 | 21010 ft | 421 kts | 358° |
| 2026-04-18 19:42 | -3.34955 | -54.53100 | 20459 ft | 418 kts | 358° |
| 2026-04-18 19:42 | -3.32043 | -54.53226 | 19909 ft | 414 kts | 358° |
| 2026-04-18 19:42 | -3.29179 | -54.53352 | 19364 ft | 410 kts | 358° |
| 2026-04-18 19:42 | -3.26342 | -54.53476 | 18825 ft | 407 kts | 358° |
| 2026-04-18 19:43 | -3.23521 | -54.53600 | 18293 ft | 404 kts | 358° |
| 2026-04-18 19:43 | -3.20723 | -54.53723 | 17718 ft | 400 kts | 358° |
| 2026-04-18 19:43 | -3.17954 | -54.53844 | 17191 ft | 396 kts | 358° |
| 2026-04-18 19:43 | -3.15210 | -54.53964 | 16670 ft | 393 kts | 358° |
| 2026-04-18 19:44 | -3.12486 | -54.54084 | 16152 ft | 390 kts | 358° |
| 2026-04-18 19:44 | -3.09788 | -54.54201 | 15638 ft | 386 kts | 358° |
| 2026-04-18 19:44 | -3.04489 | -54.54434 | 14631 ft | 380 kts | 358° |
| 2026-04-18 19:45 | -3.01822 | -54.54551 | 14125 ft | 377 kts | 358° |
| 2026-04-18 19:45 | -2.99249 | -54.54663 | 13630 ft | 374 kts | 358° |
| 2026-04-18 19:45 | -2.96663 | -54.54776 | 13118 ft | 370 kts | 358° |
| 2026-04-18 19:45 | -2.94097 | -54.54889 | 12624 ft | 368 kts | 358° |
| 2026-04-18 19:46 | -2.91547 | -54.55000 | 12142 ft | 365 kts | 358° |
| 2026-04-18 19:46 | -2.89013 | -54.55111 | 11659 ft | 362 kts | 358° |
| 2026-04-18 19:46 | -2.86498 | -54.55221 | 11181 ft | 360 kts | 358° |
| 2026-04-18 19:46 | -2.83993 | -54.55331 | 10708 ft | 357 kts | 358° |
| 2026-04-18 19:47 | -2.81521 | -54.55439 | 10237 ft | 355 kts | 358° |
| 2026-04-18 19:47 | -2.79062 | -54.55547 | 9770 ft | 352 kts | 358° |
| 2026-04-18 19:47 | -2.76646 | -54.55653 | 9281 ft | 337 kts | 358° |
| 2026-04-18 19:47 | -2.74379 | -54.55753 | 8844 ft | 316 kts | 358° |
| 2026-04-18 19:48 | -2.72268 | -54.55845 | 8442 ft | 299 kts | 358° |
| 2026-04-18 19:48 | -2.71602 | -54.55874 | 8314 ft | 295 kts | 358° |
| 2026-04-18 19:48 | -2.69566 | -54.55963 | 7923 ft | 281 kts | 358° |
| 2026-04-18 19:48 | -2.67652 | -54.56047 | 7562 ft | 270 kts | 358° |
| 2026-04-18 19:49 | -2.65821 | -54.56127 | 7220 ft | 262 kts | 358° |
| 2026-04-18 19:49 | -2.64022 | -54.56206 | 6880 ft | 257 kts | 358° |
| 2026-04-18 19:49 | -2.62239 | -54.56283 | 6552 ft | 256 kts | 358° |
| 2026-04-18 19:49 | -2.60466 | -54.56361 | 6215 ft | 255 kts | 357° |
| 2026-04-18 19:50 | -2.58699 | -54.56438 | 5867 ft | 253 kts | 357° |
| 2026-04-18 19:50 | -2.56951 | -54.56515 | 5531 ft | 250 kts | 357° |
| 2026-04-18 19:50 | -2.55214 | -54.56591 | 5201 ft | 248 kts | 357° |
| 2026-04-18 19:50 | -2.53488 | -54.56666 | 4882 ft | 247 kts | 357° |
| 2026-04-18 19:51 | -2.51788 | -54.56741 | 4663 ft | 245 kts | 357° |
| 2026-04-18 19:51 | -2.50097 | -54.56815 | 4350 ft | 246 kts | 357° |
| 2026-04-18 19:51 | -2.48391 | -54.56932 | 4007 ft | 244 kts | 351° |
| 2026-04-18 19:51 | -2.46848 | -54.57607 | 3655 ft | 240 kts | 330° |
| 2026-04-18 19:52 | -2.45447 | -54.58417 | 3362 ft | 224 kts | 330° |
| 2026-04-18 19:52 | -2.44111 | -54.59155 | 3035 ft | 215 kts | 330° |
| 2026-04-18 19:52 | -2.42804 | -54.59876 | 2731 ft | 215 kts | 330° |
| 2026-04-18 19:52 | -2.41500 | -54.60602 | 2433 ft | 215 kts | 330° |
| 2026-04-18 19:53 | -2.40316 | -54.61423 | 2078 ft | 200 kts | 313° |
| 2026-04-18 19:53 | -2.39731 | -54.62598 | 1935 ft | 179 kts | 284° |
| 2026-04-18 19:53 | -2.39922 | -54.65035 | 2024 ft | 181 kts | 262° |
| 2026-04-18 19:54 | -2.40117 | -54.66285 | 2011 ft | 182 kts | 262° |
| 2026-04-18 19:54 | -2.40315 | -54.67523 | 1991 ft | 180 kts | 262° |
| 2026-04-18 19:54 | -2.40514 | -54.68748 | 1949 ft | 175 kts | 262° |
| 2026-04-18 19:54 | -2.40711 | -54.69962 | 1796 ft | 176 kts | 262° |
| 2026-04-18 19:55 | -2.40909 | -54.71173 | 1569 ft | 172 kts | 262° |
| 2026-04-18 19:55 | -2.41093 | -54.72283 | 1341 ft | 155 kts | 262° |
| 2026-04-18 19:55 | -2.41268 | -54.73354 | 1144 ft | 155 kts | 262° |
| 2026-04-18 19:55 | -2.41432 | -54.74342 | 926 ft | 133 kts | 263° |
| 2026-04-18 19:56 | -2.41574 | -54.75203 | 759 ft | 122 kts | 262° |
| 2026-04-18 19:56 | -2.41708 | -54.76026 | 591 ft | 117 kts | 262° |
| 2026-04-18 19:56 | -2.41837 | -54.76818 | 461 ft | 119 kts | 263° |
| 2026-04-18 19:56 | -2.41974 | -54.77656 | 316 ft | 124 kts | 262° |
| 2026-04-18 19:57 | -2.42115 | -54.78500 | 201 ft | 120 kts | 263° |
| 2026-04-18 19:57 | -2.42230 | -54.79201 | 186 ft | 74 kts | 261° |
| 2026-04-18 19:57 | -2.42272 | -54.79505 | 183 ft | 10 kts | 265° |
| 2026-04-18 19:57 | -2.42279 | -54.79546 | 182 ft | 3 kts | 170° |
| 2026-04-18 19:58 | -2.42276 | -54.79488 | 182 ft | 15 kts | 80° |
| 2026-04-18 19:58 | -2.42258 | -54.79380 | 183 ft | 16 kts | 80° |
| 2026-04-18 19:58 | -2.42241 | -54.79276 | 184 ft | 15 kts | 82° |
| 2026-04-18 19:58 | -2.42225 | -54.79180 | 186 ft | 13 kts | 81° |
| 2026-04-18 19:59 | -2.42211 | -54.79090 | 187 ft | 13 kts | 81° |
| 2026-04-18 19:59 | -2.42195 | -54.78994 | 190 ft | 15 kts | 81° |
| 2026-04-18 19:59 | -2.42177 | -54.78888 | 191 ft | 16 kts | 80° |
| 2026-04-18 19:59 | -2.42166 | -54.78785 | 191 ft | 14 kts | 99° |
| 2026-04-18 20:00 | -2.42223 | -54.78707 | 187 ft | 15 kts | 136° |
| 2026-04-18 20:00 | -2.42295 | -54.78641 | 187 ft | 12 kts | 137° |
| 2026-04-18 20:00 | -2.42324 | -54.78614 | 188 ft | 4 kts | 136° |
| 2026-04-18 20:00 | -2.42344 | -54.78595 | 196 ft | 4 kts | 136° |
| 2026-04-18 20:01 | -2.42359 | -54.78575 | 193 ft | 3 kts | 106° |
| 2026-04-18 20:01 | -2.42352 | -54.78555 | 188 ft | 2 kts | 46° |
| 2026-04-18 20:01 | -2.42339 | -54.78559 | 192 ft | 4 kts | 316° |
| 2026-04-18 20:01 | -2.42329 | -54.78568 | 188 ft | 0 kts | 320° |